sensor_id;sensor_type;location;lat;lon;timestamp;P1;durP1;ratioP1;P2;durP2;ratioP2
30458;SDS011;17254;50.976;7.034;2022-10-17T02:23:10;20.10;;;12.67;;
30458;SDS011;17254;50.976;7.034;2022-10-17T02:23:36;20.73;;;13.10;;
30458;SDS011;17254;50.976;7.034;2022-10-17T02:24:03;26.85;;;12.48;;
30458;SDS011;17254;50.976;7.034;2022-10-17T02:24:24;23.83;;;12.05;;
30458;SDS011;17254;50.976;7.034;2022-10-17T02:24:49;25.90;;;12.50;;
30458;SDS011;17254;50.976;7.034;2022-10-17T02:25:12;18.75;;;12.50;;
30458;SDS011;17254;50.976;7.034;2022-10-17T02:25:34;19.83;;;12.10;;
30458;SDS011;17254;50.976;7.034;2022-10-17T02:25:57;21.65;;;11.95;;
30458;SDS011;17254;50.976;7.034;2022-10-17T02:26:23;20.63;;;12.43;;
30458;SDS011;17254;50.976;7.034;2022-10-17T02:26:44;20.00;;;13.07;;
30458;SDS011;17254;50.976;7.034;2022-10-17T02:27:07;24.17;;;12.65;;
30458;SDS011;17254;50.976;7.034;2022-10-17T02:27:32;26.67;;;12.95;;
30458;SDS011;17254;50.976;7.034;2022-10-17T02:27:59;19.95;;;12.45;;
30458;SDS011;17254;50.976;7.034;2022-10-17T02:28:24;20.23;;;12.48;;
30458;SDS011;17254;50.976;7.034;2022-10-17T02:28:46;20.88;;;12.80;;
30458;SDS011;17254;50.976;7.034;2022-10-17T02:29:08;17.65;;;12.30;;
30458;SDS011;17254;50.976;7.034;2022-10-17T02:29:32;22.23;;;12.38;;
30458;SDS011;17254;50.976;7.034;2022-10-17T02:29:54;24.77;;;11.70;;
30458;SDS011;17254;50.976;7.034;2022-10-17T02:30:19;22.98;;;12.30;;
30458;SDS011;17254;50.976;7.034;2022-10-17T02:30:42;18.42;;;12.07;;
30458;SDS011;17254;50.976;7.034;2022-10-17T02:31:02;18.67;;;12.18;;
30458;SDS011;17254;50.976;7.034;2022-10-17T02:31:23;19.63;;;12.23;;
30458;SDS011;17254;50.976;7.034;2022-10-17T02:31:46;20.40;;;12.27;;
30458;SDS011;17254;50.976;7.034;2022-10-17T02:32:06;18.25;;;12.35;;
30458;SDS011;17254;50.976;7.034;2022-10-17T02:32:27;21.02;;;11.23;;
30458;SDS011;17254;50.976;7.034;2022-10-17T02:32:51;21.77;;;11.13;;
30458;SDS011;17254;50.976;7.034;2022-10-17T02:33:10;17.17;;;11.68;;
30458;SDS011;17254;50.976;7.034;2022-10-17T02:33:30;21.90;;;12.80;;
30458;SDS011;17254;50.976;7.034;2022-10-17T02:33:51;25.95;;;12.30;;
30458;SDS011;17254;50.976;7.034;2022-10-17T02:34:12;24.30;;;12.32;;
30458;SDS011;17254;50.976;7.034;2022-10-17T02:34:36;19.00;;;11.80;;
30458;SDS011;17254;50.976;7.034;2022-10-17T02:34:55;18.10;;;11.57;;
30458;SDS011;17254;50.976;7.034;2022-10-17T02:35:16;19.17;;;12.23;;
30458;SDS011;17254;50.976;7.034;2022-10-17T02:35:35;19.55;;;12.05;;
30458;SDS011;17254;50.976;7.034;2022-10-17T02:35:58;19.80;;;11.45;;
30458;SDS011;17254;50.976;7.034;2022-10-17T02:36:20;21.95;;;11.40;;
30458;SDS011;17254;50.976;7.034;2022-10-17T02:36:41;21.42;;;12.57;;
30458;SDS011;17254;50.976;7.034;2022-10-17T02:37:01;24.15;;;12.10;;
30458;SDS011;17254;50.976;7.034;2022-10-17T02:37:22;18.17;;;11.43;;
30458;SDS011;17254;50.976;7.034;2022-10-17T02:37:42;16.23;;;11.45;;
30458;SDS011;17254;50.976;7.034;2022-10-17T02:37:59;17.05;;;11.70;;
30458;SDS011;17254;50.976;7.034;2022-10-17T02:38:17;19.15;;;11.75;;
30458;SDS011;17254;50.976;7.034;2022-10-17T02:38:35;20.48;;;12.20;;
30458;SDS011;17254;50.976;7.034;2022-10-17T02:38:55;22.20;;;12.40;;
30458;SDS011;17254;50.976;7.034;2022-10-17T02:39:12;18.75;;;11.55;;
30458;SDS011;17254;50.976;7.034;2022-10-17T02:39:29;18.58;;;11.63;;
30458;SDS011;17254;50.976;7.034;2022-10-17T02:39:47;19.73;;;11.18;;
30458;SDS011;17254;50.976;7.034;2022-10-17T02:40:05;21.02;;;11.07;;
30458;SDS011;17254;50.976;7.034;2022-10-17T02:40:26;24.90;;;11.13;;
30458;SDS011;17254;50.976;7.034;2022-10-17T02:40:45;15.95;;;11.00;;
30458;SDS011;17254;50.976;7.034;2022-10-17T02:41:02;13.48;;;10.57;;
30458;SDS011;17254;50.976;7.034;2022-10-17T02:41:20;15.90;;;10.57;;
30458;SDS011;17254;50.976;7.034;2022-10-17T02:41:40;22.92;;;10.48;;
30458;SDS011;17254;50.976;7.034;2022-10-17T02:41:57;20.35;;;10.80;;
30458;SDS011;17254;50.976;7.034;2022-10-17T02:42:18;26.55;;;11.27;;
30458;SDS011;17254;50.976;7.034;2022-10-17T02:42:37;20.20;;;10.73;;
30458;SDS011;17254;50.976;7.034;2022-10-17T02:42:57;19.00;;;10.68;;
30458;SDS011;17254;50.976;7.034;2022-10-17T02:43:14;18.17;;;11.63;;
30458;SDS011;17254;50.976;7.034;2022-10-17T02:43:30;18.20;;;12.02;;
30458;SDS011;17254;50.976;7.034;2022-10-17T02:43:47;17.67;;;10.95;;
30458;SDS011;17254;50.976;7.034;2022-10-17T02:44:05;15.55;;;10.48;;
30458;SDS011;17254;50.976;7.034;2022-10-17T02:44:22;17.45;;;11.23;;
30458;SDS011;17254;50.976;7.034;2022-10-17T02:44:41;21.30;;;11.20;;
30458;SDS011;17254;50.976;7.034;2022-10-17T02:45:02;21.92;;;11.05;;
30458;SDS011;17254;50.976;7.034;2022-10-17T02:45:20;19.92;;;10.63;;
30458;SDS011;17254;50.976;7.034;2022-10-17T02:45:40;18.92;;;10.90;;
30458;SDS011;17254;50.976;7.034;2022-10-17T02:45:56;20.40;;;10.60;;
30458;SDS011;17254;50.976;7.034;2022-10-17T02:46:12;22.08;;;10.65;;
30458;SDS011;17254;50.976;7.034;2022-10-17T02:46:35;19.75;;;11.25;;
30458;SDS011;17254;50.976;7.034;2022-10-17T02:46:57;17.00;;;10.65;;
30458;SDS011;17254;50.976;7.034;2022-10-17T02:47:19;18.60;;;10.75;;
30458;SDS011;17254;50.976;7.034;2022-10-17T02:47:42;21.58;;;10.75;;
30458;SDS011;17254;50.976;7.034;2022-10-17T02:48:04;21.23;;;10.90;;
30458;SDS011;17254;50.976;7.034;2022-10-17T02:48:26;18.58;;;10.93;;
30458;SDS011;17254;50.976;7.034;2022-10-17T02:48:49;19.30;;;9.85;;
30458;SDS011;17254;50.976;7.034;2022-10-17T02:49:07;25.50;;;10.27;;
30458;SDS011;17254;50.976;7.034;2022-10-17T02:49:32;19.55;;;10.45;;
30458;SDS011;17254;50.976;7.034;2022-10-17T02:49:55;16.55;;;9.73;;
30458;SDS011;17254;50.976;7.034;2022-10-17T02:50:12;19.73;;;9.98;;
30458;SDS011;17254;50.976;7.034;2022-10-17T02:50:31;19.90;;;10.43;;
30458;SDS011;17254;50.976;7.034;2022-10-17T02:50:57;18.00;;;11.05;;
30458;SDS011;17254;50.976;7.034;2022-10-17T02:51:19;20.73;;;11.02;;
30458;SDS011;17254;50.976;7.034;2022-10-17T02:51:44;18.83;;;10.48;;
30458;SDS011;17254;50.976;7.034;2022-10-17T02:52:05;18.38;;;11.25;;
30458;SDS011;17254;50.976;7.034;2022-10-17T02:52:26;16.27;;;11.15;;
30458;SDS011;17254;50.976;7.034;2022-10-17T02:52:47;18.90;;;10.70;;
30458;SDS011;17254;50.976;7.034;2022-10-17T02:53:10;17.97;;;10.23;;
30458;SDS011;17254;50.976;7.034;2022-10-17T02:53:31;18.73;;;9.80;;
30458;SDS011;17254;50.976;7.034;2022-10-17T02:53:53;19.23;;;10.07;;
30458;SDS011;17254;50.976;7.034;2022-10-17T02:54:18;24.80;;;9.80;;
30458;SDS011;17254;50.976;7.034;2022-10-17T02:54:38;22.80;;;9.65;;
30458;SDS011;17254;50.976;7.034;2022-10-17T02:54:58;17.55;;;10.07;;
30458;SDS011;17254;50.976;7.034;2022-10-17T02:55:20;20.25;;;10.27;;
30458;SDS011;17254;50.976;7.034;2022-10-17T02:55:42;17.15;;;10.57;;
30458;SDS011;17254;50.976;7.034;2022-10-17T02:56:07;21.88;;;10.55;;
30458;SDS011;17254;50.976;7.034;2022-10-17T02:56:29;16.23;;;10.00;;
30458;SDS011;17254;50.976;7.034;2022-10-17T02:56:50;16.60;;;9.80;;
30458;SDS011;17254;50.976;7.034;2022-10-17T02:57:11;14.07;;;9.70;;
30458;SDS011;17254;50.976;7.034;2022-10-17T02:57:33;18.20;;;10.23;;
30458;SDS011;17254;50.976;7.034;2022-10-17T02:57:52;19.15;;;10.25;;
30458;SDS011;17254;50.976;7.034;2022-10-17T02:58:12;21.15;;;10.50;;
30458;SDS011;17254;50.976;7.034;2022-10-17T02:58:34;16.77;;;10.00;;
30458;SDS011;17254;50.976;7.034;2022-10-17T02:58:53;17.75;;;9.68;;
30458;SDS011;17254;50.976;7.034;2022-10-17T02:59:13;15.48;;;9.65;;
30458;SDS011;17254;50.976;7.034;2022-10-17T02:59:31;16.73;;;9.95;;
30458;SDS011;17254;50.976;7.034;2022-10-17T02:59:50;17.83;;;9.43;;
30458;SDS011;17254;50.976;7.034;2022-10-17T03:00:07;16.42;;;9.45;;
30458;SDS011;17254;50.976;7.034;2022-10-17T03:00:27;15.68;;;9.45;;
30458;SDS011;17254;50.976;7.034;2022-10-17T03:00:45;16.15;;;9.57;;
30458;SDS011;17254;50.976;7.034;2022-10-17T03:01:04;14.55;;;9.23;;
30458;SDS011;17254;50.976;7.034;2022-10-17T03:01:21;16.67;;;9.50;;
30458;SDS011;17254;50.976;7.034;2022-10-17T03:01:38;20.98;;;10.23;;
30458;SDS011;17254;50.976;7.034;2022-10-17T03:01:56;19.08;;;9.50;;
30458;SDS011;17254;50.976;7.034;2022-10-17T03:02:13;15.82;;;9.38;;
30458;SDS011;17254;50.976;7.034;2022-10-17T03:02:35;15.57;;;9.25;;
30458;SDS011;17254;50.976;7.034;2022-10-17T03:02:54;15.63;;;10.30;;
30458;SDS011;17254;50.976;7.034;2022-10-17T03:03:20;16.42;;;10.40;;
30458;SDS011;17254;50.976;7.034;2022-10-17T03:03:39;16.75;;;9.13;;
30458;SDS011;17254;50.976;7.034;2022-10-17T03:04:05;15.38;;;9.02;;
30458;SDS011;17254;50.976;7.034;2022-10-17T03:04:22;19.83;;;9.23;;
30458;SDS011;17254;50.976;7.034;2022-10-17T03:04:41;18.83;;;9.13;;
30458;SDS011;17254;50.976;7.034;2022-10-17T03:04:58;16.02;;;8.60;;
30458;SDS011;17254;50.976;7.034;2022-10-17T03:05:15;15.60;;;8.45;;
30458;SDS011;17254;50.976;7.034;2022-10-17T03:05:32;12.65;;;8.70;;
30458;SDS011;17254;50.976;7.034;2022-10-17T03:05:48;16.35;;;9.02;;
30458;SDS011;17254;50.976;7.034;2022-10-17T03:06:04;20.50;;;9.32;;
30458;SDS011;17254;50.976;7.034;2022-10-17T03:06:20;15.23;;;9.13;;
30458;SDS011;17254;50.976;7.034;2022-10-17T03:06:37;13.50;;;8.77;;
30458;SDS011;17254;50.976;7.034;2022-10-17T03:06:54;16.00;;;8.70;;
30458;SDS011;17254;50.976;7.034;2022-10-17T03:07:11;17.02;;;8.77;;
30458;SDS011;17254;50.976;7.034;2022-10-17T03:07:27;15.38;;;8.57;;
30458;SDS011;17254;50.976;7.034;2022-10-17T03:07:44;14.43;;;8.57;;
30458;SDS011;17254;50.976;7.034;2022-10-17T03:08:01;16.70;;;9.07;;
30458;SDS011;17254;50.976;7.034;2022-10-17T03:08:17;18.65;;;9.00;;
30458;SDS011;17254;50.976;7.034;2022-10-17T03:08:34;21.10;;;8.93;;
30458;SDS011;17254;50.976;7.034;2022-10-17T03:08:49;21.55;;;8.90;;
30458;SDS011;17254;50.976;7.034;2022-10-17T03:09:06;17.85;;;8.82;;
30458;SDS011;17254;50.976;7.034;2022-10-17T03:09:22;15.02;;;8.63;;
30458;SDS011;17254;50.976;7.034;2022-10-17T03:09:39;17.23;;;8.57;;
30458;SDS011;17254;50.976;7.034;2022-10-17T03:09:55;16.20;;;8.40;;
30458;SDS011;17254;50.976;7.034;2022-10-17T03:10:11;15.70;;;9.15;;
30458;SDS011;17254;50.976;7.034;2022-10-17T03:10:27;14.68;;;9.25;;
30458;SDS011;17254;50.976;7.034;2022-10-17T03:10:43;18.83;;;8.68;;
30458;SDS011;17254;50.976;7.034;2022-10-17T03:10:59;21.33;;;8.77;;
30458;SDS011;17254;50.976;7.034;2022-10-17T03:11:16;19.65;;;8.65;;
30458;SDS011;17254;50.976;7.034;2022-10-17T03:11:32;19.90;;;8.75;;
30458;SDS011;17254;50.976;7.034;2022-10-17T03:11:48;18.88;;;8.57;;
30458;SDS011;17254;50.976;7.034;2022-10-17T03:12:05;19.13;;;8.93;;
30458;SDS011;17254;50.976;7.034;2022-10-17T03:12:23;15.68;;;8.93;;
30458;SDS011;17254;50.976;7.034;2022-10-17T03:12:41;14.98;;;8.40;;
30458;SDS011;17254;50.976;7.034;2022-10-17T03:12:57;16.23;;;8.57;;
30458;SDS011;17254;50.976;7.034;2022-10-17T03:13:14;14.15;;;8.40;;
30458;SDS011;17254;50.976;7.034;2022-10-17T03:13:30;13.50;;;8.15;;
30458;SDS011;17254;50.976;7.034;2022-10-17T03:13:48;14.65;;;8.18;;
30458;SDS011;17254;50.976;7.034;2022-10-17T03:14:05;13.38;;;8.77;;
30458;SDS011;17254;50.976;7.034;2022-10-17T03:14:21;13.60;;;9.05;;
30458;SDS011;17254;50.976;7.034;2022-10-17T03:14:37;13.03;;;8.17;;
30458;SDS011;17254;50.976;7.034;2022-10-17T03:14:53;15.70;;;8.43;;
30458;SDS011;17254;50.976;7.034;2022-10-17T03:15:10;17.20;;;9.30;;
30458;SDS011;17254;50.976;7.034;2022-10-17T03:15:28;15.40;;;9.38;;
30458;SDS011;17254;50.976;7.034;2022-10-17T03:15:45;13.77;;;8.07;;
30458;SDS011;17254;50.976;7.034;2022-10-17T03:16:01;15.38;;;7.75;;
30458;SDS011;17254;50.976;7.034;2022-10-17T03:16:17;18.65;;;8.60;;
30458;SDS011;17254;50.976;7.034;2022-10-17T03:16:33;16.70;;;8.57;;
30458;SDS011;17254;50.976;7.034;2022-10-17T03:16:49;17.83;;;8.38;;
30458;SDS011;17254;50.976;7.034;2022-10-17T03:17:08;15.00;;;7.90;;
30458;SDS011;17254;50.976;7.034;2022-10-17T03:17:24;16.75;;;8.40;;
30458;SDS011;17254;50.976;7.034;2022-10-17T03:17:41;15.70;;;8.55;;
30458;SDS011;17254;50.976;7.034;2022-10-17T03:17:57;10.90;;;7.93;;
30458;SDS011;17254;50.976;7.034;2022-10-17T03:18:13;11.20;;;7.63;;
30458;SDS011;17254;50.976;7.034;2022-10-17T03:18:29;12.05;;;7.88;;
30458;SDS011;17254;50.976;7.034;2022-10-17T03:18:49;16.77;;;8.30;;
30458;SDS011;17254;50.976;7.034;2022-10-17T03:19:04;20.83;;;7.83;;
30458;SDS011;17254;50.976;7.034;2022-10-17T03:19:22;17.13;;;7.95;;
30458;SDS011;17254;50.976;7.034;2022-10-17T03:19:40;12.88;;;7.93;;
30458;SDS011;17254;50.976;7.034;2022-10-17T03:19:57;14.00;;;8.07;;
30458;SDS011;17254;50.976;7.034;2022-10-17T03:20:14;13.13;;;7.63;;
30458;SDS011;17254;50.976;7.034;2022-10-17T03:20:30;20.30;;;8.65;;
30458;SDS011;17254;50.976;7.034;2022-10-17T03:20:46;21.23;;;8.68;;
30458;SDS011;17254;50.976;7.034;2022-10-17T03:21:02;14.05;;;7.95;;
30458;SDS011;17254;50.976;7.034;2022-10-17T03:21:18;14.27;;;7.90;;
30458;SDS011;17254;50.976;7.034;2022-10-17T03:21:35;21.58;;;7.28;;
30458;SDS011;17254;50.976;7.034;2022-10-17T03:21:52;19.13;;;7.18;;
30458;SDS011;17254;50.976;7.034;2022-10-17T03:22:08;13.38;;;7.28;;
30458;SDS011;17254;50.976;7.034;2022-10-17T03:22:25;16.38;;;7.60;;
30458;SDS011;17254;50.976;7.034;2022-10-17T03:22:41;18.08;;;8.07;;
30458;SDS011;17254;50.976;7.034;2022-10-17T03:22:58;17.20;;;7.57;;
30458;SDS011;17254;50.976;7.034;2022-10-17T03:23:16;17.27;;;7.50;;
30458;SDS011;17254;50.976;7.034;2022-10-17T03:23:32;18.00;;;7.88;;
30458;SDS011;17254;50.976;7.034;2022-10-17T03:23:49;14.52;;;7.70;;
30458;SDS011;17254;50.976;7.034;2022-10-17T03:24:06;19.48;;;7.63;;
30458;SDS011;17254;50.976;7.034;2022-10-17T03:24:22;18.50;;;7.78;;
30458;SDS011;17254;50.976;7.034;2022-10-17T03:24:39;18.38;;;7.50;;
30458;SDS011;17254;50.976;7.034;2022-10-17T03:24:55;16.33;;;7.30;;
30458;SDS011;17254;50.976;7.034;2022-10-17T03:25:12;12.60;;;7.43;;
30458;SDS011;17254;50.976;7.034;2022-10-17T03:25:28;13.00;;;7.28;;
30458;SDS011;17254;50.976;7.034;2022-10-17T03:25:43;18.27;;;7.40;;
30458;SDS011;17254;50.976;7.034;2022-10-17T03:26:02;13.90;;;7.30;;
30458;SDS011;17254;50.976;7.034;2022-10-17T03:26:19;9.85;;;7.35;;
30458;SDS011;17254;50.976;7.034;2022-10-17T03:26:35;13.55;;;7.90;;
30458;SDS011;17254;50.976;7.034;2022-10-17T03:26:51;17.55;;;7.90;;
30458;SDS011;17254;50.976;7.034;2022-10-17T03:27:07;16.88;;;7.47;;
30458;SDS011;17254;50.976;7.034;2022-10-17T03:27:25;11.85;;;7.10;;
30458;SDS011;17254;50.976;7.034;2022-10-17T03:27:41;11.90;;;7.40;;
30458;SDS011;17254;50.976;7.034;2022-10-17T03:27:57;13.30;;;7.22;;
30458;SDS011;17254;50.976;7.034;2022-10-17T03:28:15;10.45;;;7.05;;
30458;SDS011;17254;50.976;7.034;2022-10-17T03:28:31;12.75;;;7.70;;
30458;SDS011;17254;50.976;7.034;2022-10-17T03:28:47;13.85;;;8.27;;
30458;SDS011;17254;50.976;7.034;2022-10-17T03:29:03;13.18;;;7.75;;
30458;SDS011;17254;50.976;7.034;2022-10-17T03:29:21;13.18;;;7.18;;
30458;SDS011;17254;50.976;7.034;2022-10-17T03:29:37;11.35;;;6.90;;
30458;SDS011;17254;50.976;7.034;2022-10-17T03:29:55;10.40;;;6.68;;
30458;SDS011;17254;50.976;7.034;2022-10-17T03:30:12;15.90;;;7.00;;
30458;SDS011;17254;50.976;7.034;2022-10-17T03:30:28;15.70;;;7.40;;
30458;SDS011;17254;50.976;7.034;2022-10-17T03:30:44;10.38;;;7.75;;
30458;SDS011;17254;50.976;7.034;2022-10-17T03:31:05;9.98;;;7.50;;
30458;SDS011;17254;50.976;7.034;2022-10-17T03:31:21;12.25;;;7.10;;
30458;SDS011;17254;50.976;7.034;2022-10-17T03:31:40;12.02;;;6.85;;
30458;SDS011;17254;50.976;7.034;2022-10-17T03:31:57;12.25;;;7.25;;
30458;SDS011;17254;50.976;7.034;2022-10-17T03:32:15;10.93;;;7.85;;
30458;SDS011;17254;50.976;7.034;2022-10-17T03:32:31;12.57;;;7.20;;
30458;SDS011;17254;50.976;7.034;2022-10-17T03:32:48;14.50;;;7.03;;
30458;SDS011;17254;50.976;7.034;2022-10-17T03:33:05;12.38;;;7.32;;
30458;SDS011;17254;50.976;7.034;2022-10-17T03:33:21;12.40;;;7.68;;
30458;SDS011;17254;50.976;7.034;2022-10-17T03:33:37;13.68;;;7.47;;
30458;SDS011;17254;50.976;7.034;2022-10-17T03:33:53;13.68;;;7.30;;
30458;SDS011;17254;50.976;7.034;2022-10-17T03:34:09;13.45;;;6.82;;
30458;SDS011;17254;50.976;7.034;2022-10-17T03:34:25;16.77;;;7.53;;
30458;SDS011;17254;50.976;7.034;2022-10-17T03:34:42;17.05;;;7.57;;
30458;SDS011;17254;50.976;7.034;2022-10-17T03:34:58;16.38;;;7.15;;
30458;SDS011;17254;50.976;7.034;2022-10-17T03:35:14;12.18;;;7.07;;
30458;SDS011;17254;50.976;7.034;2022-10-17T03:35:36;14.68;;;7.07;;
30458;SDS011;17254;50.976;7.034;2022-10-17T03:35:53;14.23;;;7.93;;
30458;SDS011;17254;50.976;7.034;2022-10-17T03:36:09;16.88;;;8.00;;
30458;SDS011;17254;50.976;7.034;2022-10-17T03:36:27;14.18;;;7.22;;
30458;SDS011;17254;50.976;7.034;2022-10-17T03:36:44;13.35;;;6.95;;
30458;SDS011;17254;50.976;7.034;2022-10-17T03:37:00;14.38;;;7.13;;
30458;SDS011;17254;50.976;7.034;2022-10-17T03:37:17;14.13;;;7.20;;
30458;SDS011;17254;50.976;7.034;2022-10-17T03:37:33;16.45;;;7.25;;
30458;SDS011;17254;50.976;7.034;2022-10-17T03:37:49;18.75;;;7.47;;
30458;SDS011;17254;50.976;7.034;2022-10-17T03:38:08;21.45;;;7.55;;
30458;SDS011;17254;50.976;7.034;2022-10-17T03:38:24;19.45;;;7.35;;
30458;SDS011;17254;50.976;7.034;2022-10-17T03:38:41;19.42;;;7.28;;
30458;SDS011;17254;50.976;7.034;2022-10-17T03:38:58;18.67;;;7.25;;
30458;SDS011;17254;50.976;7.034;2022-10-17T03:39:14;17.67;;;7.20;;
30458;SDS011;17254;50.976;7.034;2022-10-17T03:39:31;13.95;;;7.05;;
30458;SDS011;17254;50.976;7.034;2022-10-17T03:39:47;10.93;;;7.22;;
30458;SDS011;17254;50.976;7.034;2022-10-17T03:40:04;13.95;;;7.18;;
30458;SDS011;17254;50.976;7.034;2022-10-17T03:40:20;16.30;;;7.20;;
30458;SDS011;17254;50.976;7.034;2022-10-17T03:40:36;16.08;;;6.68;;
30458;SDS011;17254;50.976;7.034;2022-10-17T03:40:53;13.13;;;6.75;;
30458;SDS011;17254;50.976;7.034;2022-10-17T03:41:10;14.52;;;7.22;;
30458;SDS011;17254;50.976;7.034;2022-10-17T03:41:27;11.50;;;6.85;;
30458;SDS011;17254;50.976;7.034;2022-10-17T03:41:43;9.30;;;6.87;;
30458;SDS011;17254;50.976;7.034;2022-10-17T03:41:59;11.20;;;7.72;;
30458;SDS011;17254;50.976;7.034;2022-10-17T03:42:16;14.25;;;7.75;;
30458;SDS011;17254;50.976;7.034;2022-10-17T03:42:32;13.77;;;7.32;;
30458;SDS011;17254;50.976;7.034;2022-10-17T03:42:48;14.90;;;6.82;;
30458;SDS011;17254;50.976;7.034;2022-10-17T03:43:04;12.90;;;7.10;;
30458;SDS011;17254;50.976;7.034;2022-10-17T03:43:21;10.60;;;7.38;;
30458;SDS011;17254;50.976;7.034;2022-10-17T03:43:37;15.60;;;7.35;;
30458;SDS011;17254;50.976;7.034;2022-10-17T03:43:54;16.33;;;7.18;;
30458;SDS011;17254;50.976;7.034;2022-10-17T03:44:12;11.43;;;6.85;;
30458;SDS011;17254;50.976;7.034;2022-10-17T03:44:28;12.68;;;7.22;;
30458;SDS011;17254;50.976;7.034;2022-10-17T03:44:44;16.25;;;7.63;;
30458;SDS011;17254;50.976;7.034;2022-10-17T03:45:01;13.35;;;6.97;;
30458;SDS011;17254;50.976;7.034;2022-10-17T03:45:17;13.15;;;6.53;;
30458;SDS011;17254;50.976;7.034;2022-10-17T03:45:34;17.33;;;6.70;;
30458;SDS011;17254;50.976;7.034;2022-10-17T03:45:51;13.00;;;6.57;;
30458;SDS011;17254;50.976;7.034;2022-10-17T03:46:08;13.98;;;7.28;;
30458;SDS011;17254;50.976;7.034;2022-10-17T03:46:25;14.68;;;7.00;;
30458;SDS011;17254;50.976;7.034;2022-10-17T03:46:42;12.65;;;6.85;;
30458;SDS011;17254;50.976;7.034;2022-10-17T03:46:58;18.55;;;7.28;;
30458;SDS011;17254;50.976;7.034;2022-10-17T03:47:16;18.90;;;7.57;;
30458;SDS011;17254;50.976;7.034;2022-10-17T03:47:34;15.68;;;7.05;;
30458;SDS011;17254;50.976;7.034;2022-10-17T03:47:50;14.23;;;6.75;;
30458;SDS011;17254;50.976;7.034;2022-10-17T03:48:06;16.25;;;6.50;;
30458;SDS011;17254;50.976;7.034;2022-10-17T03:48:22;20.95;;;6.50;;
30458;SDS011;17254;50.976;7.034;2022-10-17T03:48:38;12.82;;;6.22;;
30458;SDS011;17254;50.976;7.034;2022-10-17T03:48:55;14.95;;;6.88;;
30458;SDS011;17254;50.976;7.034;2022-10-17T03:49:11;15.48;;;7.25;;
30458;SDS011;17254;50.976;7.034;2022-10-17T03:49:28;15.40;;;7.80;;
30458;SDS011;17254;50.976;7.034;2022-10-17T03:49:44;17.73;;;7.63;;
30458;SDS011;17254;50.976;7.034;2022-10-17T03:50:00;12.77;;;7.20;;
30458;SDS011;17254;50.976;7.034;2022-10-17T03:50:20;12.98;;;6.57;;
30458;SDS011;17254;50.976;7.034;2022-10-17T03:50:36;12.73;;;6.72;;
30458;SDS011;17254;50.976;7.034;2022-10-17T03:50:56;12.52;;;7.35;;
30458;SDS011;17254;50.976;7.034;2022-10-17T03:51:13;17.25;;;7.53;;
30458;SDS011;17254;50.976;7.034;2022-10-17T03:51:34;21.48;;;7.63;;
30458;SDS011;17254;50.976;7.034;2022-10-17T03:51:56;18.15;;;7.38;;
30458;SDS011;17254;50.976;7.034;2022-10-17T03:52:13;14.63;;;7.10;;
30458;SDS011;17254;50.976;7.034;2022-10-17T03:52:29;17.70;;;7.93;;
30458;SDS011;17254;50.976;7.034;2022-10-17T03:52:45;14.75;;;7.75;;
30458;SDS011;17254;50.976;7.034;2022-10-17T03:53:02;14.15;;;7.15;;
30458;SDS011;17254;50.976;7.034;2022-10-17T03:53:18;17.05;;;7.25;;
30458;SDS011;17254;50.976;7.034;2022-10-17T03:53:35;12.48;;;6.43;;
30458;SDS011;17254;50.976;7.034;2022-10-17T03:53:52;12.07;;;6.38;;
30458;SDS011;17254;50.976;7.034;2022-10-17T03:54:08;12.05;;;6.93;;
30458;SDS011;17254;50.976;7.034;2022-10-17T03:54:24;13.35;;;7.00;;
30458;SDS011;17254;50.976;7.034;2022-10-17T03:54:40;12.25;;;6.80;;
30458;SDS011;17254;50.976;7.034;2022-10-17T03:54:56;14.38;;;6.68;;
30458;SDS011;17254;50.976;7.034;2022-10-17T03:55:13;13.88;;;6.65;;
30458;SDS011;17254;50.976;7.034;2022-10-17T03:55:29;11.38;;;6.88;;
30458;SDS011;17254;50.976;7.034;2022-10-17T03:55:45;13.25;;;7.28;;
30458;SDS011;17254;50.976;7.034;2022-10-17T03:56:08;13.77;;;6.65;;
30458;SDS011;17254;50.976;7.034;2022-10-17T03:56:25;13.27;;;6.57;;
30458;SDS011;17254;50.976;7.034;2022-10-17T03:56:47;20.63;;;7.00;;
30458;SDS011;17254;50.976;7.034;2022-10-17T03:57:06;19.00;;;6.75;;
30458;SDS011;17254;50.976;7.034;2022-10-17T03:57:22;11.13;;;6.97;;
30458;SDS011;17254;50.976;7.034;2022-10-17T03:57:38;9.98;;;6.97;;
30458;SDS011;17254;50.976;7.034;2022-10-17T03:57:55;10.95;;;6.95;;
30458;SDS011;17254;50.976;7.034;2022-10-17T03:58:12;15.05;;;7.30;;
30458;SDS011;17254;50.976;7.034;2022-10-17T03:58:28;18.30;;;7.30;;
30458;SDS011;17254;50.976;7.034;2022-10-17T03:58:44;13.55;;;6.70;;
30458;SDS011;17254;50.976;7.034;2022-10-17T03:59:01;13.35;;;7.28;;
30458;SDS011;17254;50.976;7.034;2022-10-17T03:59:21;16.77;;;7.30;;
30458;SDS011;17254;50.976;7.034;2022-10-17T03:59:48;18.15;;;7.57;;
30458;SDS011;17254;50.976;7.034;2022-10-17T04:00:08;14.83;;;6.83;;
30458;SDS011;17254;50.976;7.034;2022-10-17T04:00:34;16.77;;;6.85;;
30458;SDS011;17254;50.976;7.034;2022-10-17T04:00:50;15.80;;;7.25;;
30458;SDS011;17254;50.976;7.034;2022-10-17T04:01:08;11.82;;;6.95;;
30458;SDS011;17254;50.976;7.034;2022-10-17T04:01:25;15.38;;;6.72;;
30458;SDS011;17254;50.976;7.034;2022-10-17T04:01:42;16.23;;;7.05;;
30458;SDS011;17254;50.976;7.034;2022-10-17T04:01:58;12.63;;;6.60;;
30458;SDS011;17254;50.976;7.034;2022-10-17T04:02:14;11.50;;;6.93;;
30458;SDS011;17254;50.976;7.034;2022-10-17T04:02:32;11.63;;;7.13;;
30458;SDS011;17254;50.976;7.034;2022-10-17T04:02:49;14.20;;;6.78;;
30458;SDS011;17254;50.976;7.034;2022-10-17T04:03:07;17.10;;;6.53;;
30458;SDS011;17254;50.976;7.034;2022-10-17T04:03:23;15.32;;;6.72;;
30458;SDS011;17254;50.976;7.034;2022-10-17T04:03:40;18.85;;;7.32;;
30458;SDS011;17254;50.976;7.034;2022-10-17T04:03:57;18.45;;;7.15;;
30458;SDS011;17254;50.976;7.034;2022-10-17T04:04:17;16.95;;;6.97;;
30458;SDS011;17254;50.976;7.034;2022-10-17T04:04:33;17.27;;;6.93;;
30458;SDS011;17254;50.976;7.034;2022-10-17T04:04:49;15.23;;;6.45;;
30458;SDS011;17254;50.976;7.034;2022-10-17T04:05:06;13.85;;;6.80;;
30458;SDS011;17254;50.976;7.034;2022-10-17T04:05:23;15.23;;;7.05;;
30458;SDS011;17254;50.976;7.034;2022-10-17T04:05:39;14.13;;;6.63;;
30458;SDS011;17254;50.976;7.034;2022-10-17T04:05:57;11.32;;;6.70;;
30458;SDS011;17254;50.976;7.034;2022-10-17T04:06:13;8.43;;;7.20;;
30458;SDS011;17254;50.976;7.034;2022-10-17T04:06:31;13.48;;;7.20;;
30458;SDS011;17254;50.976;7.034;2022-10-17T04:06:48;14.60;;;6.85;;
30458;SDS011;17254;50.976;7.034;2022-10-17T04:07:04;18.17;;;7.30;;
30458;SDS011;17254;50.976;7.034;2022-10-17T04:07:22;18.23;;;7.22;;
30458;SDS011;17254;50.976;7.034;2022-10-17T04:07:38;13.50;;;6.93;;
30458;SDS011;17254;50.976;7.034;2022-10-17T04:07:55;15.98;;;6.88;;
30458;SDS011;17254;50.976;7.034;2022-10-17T04:08:25;12.52;;;5.85;;
30458;SDS011;17254;50.976;7.034;2022-10-17T04:08:54;12.48;;;6.25;;
30458;SDS011;17254;50.976;7.034;2022-10-17T04:09:16;12.40;;;7.35;;
30458;SDS011;17254;50.976;7.034;2022-10-17T04:09:54;14.30;;;6.82;;
30458;SDS011;17254;50.976;7.034;2022-10-17T04:10:11;14.75;;;7.28;;
30458;SDS011;17254;50.976;7.034;2022-10-17T04:10:27;11.13;;;7.10;;
30458;SDS011;17254;50.976;7.034;2022-10-17T04:10:43;12.82;;;6.53;;
30458;SDS011;17254;50.976;7.034;2022-10-17T04:10:59;14.63;;;6.88;;
30458;SDS011;17254;50.976;7.034;2022-10-17T04:11:18;12.52;;;7.25;;
30458;SDS011;17254;50.976;7.034;2022-10-17T04:11:36;13.90;;;7.35;;